Shawanga, Canada
Current Conditions -  °F | °C
As of 4:27 AM on Friday 19 Dec 2014 (Local Time) from CYQA Reporting Station
Light Snow Light Snow  
Wind Chill:   Ceiling: 3600
Heat Index: 14°   Visibility: 5mi
Dew Point: 10°   Wind: 6mph
Humidity: 86%   Direction: 300°WNW
Pressure: 30.1"   Gusts: NA
Location:  45.52°N, 80.28°W
Report Text: CYQA 190927Z AUTO 30005KT 5SM -SN BKN036 BKN070 OVC086 M10/M12 A3010 RMK SLP213
Loading
Personal Weather Stations






























Interactive Weather Map New forecast layout! Learn more

10-Day Weather Forecast

Advertisements
Track Severe Weather on mobile